createdAt,value
2023-04-26T00:00:26.527Z,981.00
2023-04-26T00:01:27.433Z,979.00
2023-04-26T00:02:26.595Z,978.00
2023-04-26T00:03:27.619Z,976.00
2023-04-26T00:04:26.722Z,973.00
2023-04-26T00:05:27.578Z,973.00
2023-04-26T00:06:27.607Z,975.00
2023-04-26T00:07:27.660Z,975.00
2023-04-26T00:08:27.682Z,976.00
2023-04-26T00:09:27.739Z,976.00
2023-04-26T00:10:27.770Z,974.00
2023-04-26T00:11:27.810Z,971.00
2023-04-26T00:12:27.855Z,972.00
2023-04-26T00:13:27.940Z,974.00
2023-04-26T00:14:27.946Z,976.00
2023-04-26T00:15:27.012Z,974.00
2023-04-26T00:16:27.111Z,977.00
2023-04-26T00:17:27.063Z,978.00
2023-04-26T00:18:27.116Z,978.00
2023-04-26T00:19:27.159Z,975.00
2023-04-26T00:20:28.211Z,974.00
2023-04-26T00:21:27.252Z,976.00
2023-04-26T00:22:28.297Z,975.00
2023-04-26T00:23:28.347Z,974.00
2023-04-26T00:24:28.391Z,974.00
2023-04-26T00:25:27.426Z,975.00
2023-04-26T00:26:27.498Z,975.00
2023-04-26T00:27:28.520Z,973.00
2023-04-26T00:28:28.571Z,971.00
2023-04-26T00:29:27.627Z,974.00
2023-04-26T00:30:28.663Z,976.00
2023-04-26T00:31:28.721Z,975.00
2023-04-26T00:32:28.972Z,974.00
2023-04-26T00:33:27.805Z,971.00
2023-04-26T00:34:28.841Z,972.00
2023-04-26T00:35:27.897Z,973.00
2023-04-26T00:36:28.943Z,975.00
2023-04-26T00:37:27.995Z,974.00
2023-04-26T00:38:29.046Z,976.00
2023-04-26T00:39:29.091Z,974.00
2023-04-26T00:40:29.135Z,973.00
2023-04-26T00:41:28.208Z,971.00
2023-04-26T00:42:29.244Z,970.00
2023-04-26T00:43:29.288Z,970.00
2023-04-26T00:44:29.325Z,970.00
2023-04-26T00:45:29.430Z,973.00
2023-04-26T00:46:29.477Z,972.00
2023-04-26T00:47:29.509Z,970.00
2023-04-26T00:48:29.540Z,969.00
2023-04-26T00:49:29.555Z,969.00
2023-04-26T00:50:29.606Z,972.00
2023-04-26T00:51:29.922Z,972.00
2023-04-26T00:52:28.714Z,973.00
2023-04-26T00:53:28.741Z,972.00
2023-04-26T00:54:28.805Z,968.00
2023-04-26T00:55:29.933Z,968.00
2023-04-26T00:56:28.899Z,967.00
2023-04-26T00:57:28.931Z,968.00
2023-04-26T00:58:29.988Z,971.00
2023-04-26T00:59:30.034Z,971.00
2023-04-26T01:00:29.070Z,969.00
2023-04-26T01:01:29.173Z,971.00
2023-04-26T01:02:30.288Z,972.00
2023-04-26T01:03:30.359Z,970.00
2023-04-26T01:04:30.413Z,966.00
2023-04-26T01:05:30.317Z,966.00
2023-04-26T01:06:30.372Z,967.00
2023-04-26T01:07:30.401Z,969.00
2023-04-26T01:08:30.458Z,969.00
2023-04-26T01:09:29.505Z,970.00
2023-04-26T01:10:30.867Z,971.00
2023-04-26T01:11:31.170Z,971.00
2023-04-26T01:12:29.651Z,968.00
2023-04-26T01:13:30.698Z,967.00
2023-04-26T01:14:29.766Z,969.00
2023-04-26T01:15:30.788Z,966.00
2023-04-26T01:16:29.886Z,964.00
2023-04-26T01:17:30.943Z,964.00
2023-04-26T01:18:30.946Z,965.00
2023-04-26T01:19:30.997Z,965.00
2023-04-26T01:20:30.081Z,966.00
2023-04-26T01:21:30.128Z,966.00
2023-04-26T01:22:30.210Z,963.00
2023-04-26T01:23:31.203Z,961.00
2023-04-26T01:24:30.254Z,962.00
2023-04-26T01:25:31.323Z,959.00
2023-04-26T01:26:30.376Z,959.00
2023-04-26T01:27:31.471Z,958.00
2023-04-26T01:28:31.509Z,957.00
2023-04-26T01:29:30.565Z,952.00
2023-04-26T01:30:30.616Z,952.00
2023-04-26T01:31:31.768Z,950.00
2023-04-26T01:32:31.762Z,948.00
2023-04-26T01:33:31.792Z,946.00
2023-04-26T01:34:31.836Z,948.00
2023-04-26T01:35:31.929Z,947.00
2023-04-26T01:36:32.311Z,948.00
2023-04-26T01:37:32.014Z,947.00
2023-04-26T01:38:32.080Z,944.00
2023-04-26T01:39:32.099Z,948.00
2023-04-26T01:40:32.169Z,949.00
2023-04-26T01:41:32.227Z,950.00
2023-04-26T01:42:31.284Z,946.00
2023-04-26T01:43:32.319Z,946.00
2023-04-26T01:44:32.395Z,943.00
2023-04-26T01:45:32.442Z,943.00
2023-04-26T01:46:31.567Z,945.00
2023-04-26T01:47:32.588Z,948.00
2023-04-26T01:48:32.601Z,949.00
2023-04-26T01:49:31.660Z,947.00
2023-04-26T01:50:31.719Z,946.00
2023-04-26T01:51:32.852Z,947.00
2023-04-26T01:52:32.826Z,946.00
2023-04-26T01:53:32.878Z,945.00
2023-04-26T01:54:32.961Z,943.00
2023-04-26T01:55:33.044Z,944.00
2023-04-26T01:56:32.080Z,944.00
2023-04-26T01:57:33.122Z,940.00
2023-04-26T01:58:32.189Z,941.00
2023-04-26T01:59:32.291Z,942.00
2023-04-26T02:00:33.305Z,939.00
2023-04-26T02:01:33.379Z,940.00
2023-04-26T02:02:32.443Z,938.00
2023-04-26T02:03:33.494Z,940.00
2023-04-26T02:04:33.510Z,941.00
2023-04-26T02:05:33.556Z,940.00
2023-04-26T02:06:33.671Z,939.00
2023-04-26T02:07:33.693Z,938.00
2023-04-26T02:08:33.756Z,943.00
2023-04-26T02:09:32.792Z,945.00
2023-04-26T02:10:32.829Z,948.00
2023-04-26T02:11:33.898Z,949.00
2023-04-26T02:12:33.967Z,947.00
2023-04-26T02:13:34.006Z,946.00
2023-04-26T02:14:34.072Z,949.00
2023-04-26T02:15:34.129Z,947.00
2023-04-26T02:16:33.219Z,947.00
2023-04-26T02:17:34.312Z,949.00
2023-04-26T02:18:34.318Z,947.00
2023-04-26T02:19:34.367Z,947.00
2023-04-26T02:20:33.427Z,947.00
2023-04-26T02:21:33.479Z,946.00
2023-04-26T02:22:34.552Z,947.00
2023-04-26T02:23:33.631Z,953.00
2023-04-26T02:24:33.759Z,952.00
2023-04-26T02:25:33.741Z,953.00
2023-04-26T02:26:34.807Z,952.00
2023-04-26T02:27:33.872Z,950.00
2023-04-26T02:28:34.916Z,948.00
2023-04-26T02:30:33.980Z,947.00
2023-04-26T02:31:34.991Z,946.00
2023-04-26T02:32:35.007Z,943.00
2023-04-26T02:33:34.947Z,944.00
2023-04-26T02:34:33.939Z,946.00
2023-04-26T02:35:34.941Z,946.00
2023-04-26T02:36:33.939Z,945.00
2023-04-26T02:37:34.929Z,950.00
2023-04-26T02:38:33.926Z,954.00
2023-04-26T02:39:34.941Z,954.00
2023-04-26T02:40:33.920Z,955.00
2023-04-26T02:41:34.954Z,955.00
2023-04-26T02:42:34.885Z,955.00
2023-04-26T02:43:34.870Z,953.00
2023-04-26T02:44:34.873Z,953.00
2023-04-26T02:45:34.878Z,952.00
2023-04-26T02:46:34.923Z,950.00
2023-04-26T02:47:33.931Z,948.00
2023-04-26T02:48:34.844Z,947.00
2023-04-26T02:49:34.847Z,946.00
2023-04-26T02:50:34.836Z,943.00
2023-04-26T02:51:34.841Z,940.00
2023-04-26T02:52:34.818Z,940.00
2023-04-26T02:53:34.886Z,940.00
2023-04-26T02:54:33.919Z,941.00
2023-04-26T02:55:34.004Z,940.00
2023-04-26T02:56:35.090Z,942.00
2023-04-26T02:57:35.088Z,943.00
2023-04-26T02:58:35.152Z,943.00
2023-04-26T02:59:35.205Z,944.00
2023-04-26T03:00:35.354Z,944.00
2023-04-26T03:01:34.417Z,942.00
2023-04-26T03:02:35.596Z,939.00
2023-04-26T03:03:35.576Z,940.00
2023-04-26T03:04:34.504Z,938.00
2023-04-26T03:05:34.565Z,936.00
2023-04-26T03:06:35.623Z,937.00
2023-04-26T03:07:34.678Z,940.00
2023-04-26T03:08:35.738Z,942.00
2023-04-26T03:09:35.810Z,942.00
2023-04-26T03:10:35.865Z,938.00
2023-04-26T03:11:35.978Z,944.00
2023-04-26T03:12:35.972Z,944.00
2023-04-26T03:13:36.045Z,945.00
2023-04-26T03:14:35.104Z,945.00
2023-04-26T03:15:35.191Z,945.00
2023-04-26T03:16:36.260Z,942.00
2023-04-26T03:17:36.340Z,940.00
2023-04-26T03:18:36.355Z,938.00
2023-04-26T03:19:35.430Z,940.00
2023-04-26T03:20:35.477Z,937.00
2023-04-26T03:21:36.550Z,936.00
2023-04-26T03:22:35.595Z,934.00
2023-04-26T03:23:35.680Z,933.00
2023-04-26T03:24:36.716Z,935.00
2023-04-26T03:25:35.784Z,933.00
2023-04-26T03:26:36.840Z,933.00
2023-04-26T03:27:35.921Z,936.00
2023-04-26T03:28:35.956Z,936.00
2023-04-26T03:29:36.025Z,938.00
2023-04-26T03:30:37.074Z,939.00
2023-04-26T03:31:36.218Z,938.00
2023-04-26T03:32:36.291Z,941.00
2023-04-26T03:33:37.262Z,943.00
2023-04-26T03:34:37.331Z,943.00
2023-04-26T03:35:37.382Z,944.00
2023-04-26T03:36:37.462Z,942.00
2023-04-26T03:37:36.539Z,941.00
2023-04-26T03:38:37.643Z,939.00
2023-04-26T03:39:37.650Z,937.00
2023-04-26T03:40:36.684Z,939.00
2023-04-26T03:41:37.768Z,935.00
2023-04-26T03:42:37.842Z,936.00
2023-04-26T03:43:37.934Z,936.00
2023-04-26T03:44:37.930Z,934.00
2023-04-26T03:45:37.024Z,929.00
2023-04-26T03:46:37.040Z,927.00
2023-04-26T03:47:38.112Z,924.00
2023-04-26T03:48:37.172Z,921.00
2023-04-26T03:49:37.191Z,917.00
2023-04-26T03:50:38.227Z,913.00
2023-04-26T03:51:38.302Z,912.00
2023-04-26T03:52:37.348Z,913.00
2023-04-26T03:53:38.424Z,912.00
2023-04-26T03:54:38.455Z,912.00
2023-04-26T03:55:38.503Z,910.00
2023-04-26T03:56:37.563Z,908.00
2023-04-26T03:57:37.680Z,908.00
2023-04-26T03:58:38.713Z,907.00
2023-04-26T03:59:37.741Z,907.00
2023-04-26T04:00:37.766Z,904.00
2023-04-26T04:01:38.801Z,905.00
2023-04-26T04:02:38.986Z,905.00
2023-04-26T04:03:41.002Z,906.00
2023-04-26T04:04:39.101Z,904.00
2023-04-26T04:05:37.962Z,905.00
2023-04-26T04:06:37.907Z,905.00
2023-04-26T04:07:37.899Z,900.00
2023-04-26T04:08:37.878Z,901.00
2023-04-26T04:09:38.873Z,897.00
2023-04-26T04:10:38.859Z,892.00
2023-04-26T04:11:38.859Z,893.00
2023-04-26T04:12:38.848Z,896.00
2023-04-26T04:13:38.848Z,896.00
2023-04-26T04:14:37.841Z,892.00
2023-04-26T04:15:38.867Z,895.00
2023-04-26T04:16:38.813Z,893.00
2023-04-26T04:17:39.033Z,893.00
2023-04-26T04:18:38.818Z,892.00
2023-04-26T04:19:38.806Z,894.00
2023-04-26T04:20:38.792Z,892.00
2023-04-26T04:21:38.789Z,891.00
2023-04-26T04:22:37.794Z,892.00
2023-04-26T04:23:38.766Z,892.00
2023-04-26T04:24:38.768Z,893.00
2023-04-26T04:25:37.785Z,894.00
2023-04-26T04:26:37.776Z,894.00
2023-04-26T04:27:38.802Z,893.00
2023-04-26T04:28:38.741Z,893.00
2023-04-26T04:29:37.753Z,895.00
2023-04-26T04:30:37.825Z,894.00
2023-04-26T04:31:38.869Z,891.00
2023-04-26T04:32:38.902Z,891.00
2023-04-26T04:33:38.919Z,890.00
2023-04-26T04:34:37.968Z,890.00
2023-04-26T04:35:37.996Z,889.00
2023-04-26T04:36:38.027Z,887.00
2023-04-26T04:37:38.085Z,889.00
2023-04-26T04:38:38.104Z,890.00
2023-04-26T04:39:38.158Z,889.00
2023-04-26T04:40:38.204Z,889.00
2023-04-26T04:41:39.247Z,889.00
2023-04-26T04:42:39.293Z,890.00
2023-04-26T04:43:38.331Z,885.00
2023-04-26T04:44:39.372Z,887.00
2023-04-26T04:45:39.436Z,885.00
2023-04-26T04:46:38.546Z,881.00
2023-04-26T04:47:38.570Z,886.00
2023-04-26T04:48:39.556Z,888.00
2023-04-26T04:49:38.599Z,883.00
2023-04-26T04:50:39.631Z,880.00
2023-04-26T04:51:39.677Z,879.00
2023-04-26T04:52:38.713Z,875.00
2023-04-26T04:53:39.750Z,874.00
2023-04-26T04:54:39.805Z,872.00
2023-04-26T04:55:39.868Z,875.00
2023-04-26T04:56:38.892Z,877.00
2023-04-26T04:57:42.651Z,875.00
2023-04-26T04:58:38.961Z,879.00
2023-04-26T04:59:40.402Z,883.00
2023-04-26T05:00:39.903Z,885.00
2023-04-26T05:01:39.921Z,884.00
2023-04-26T05:02:38.959Z,889.00
2023-04-26T05:03:39.976Z,892.00
2023-04-26T05:04:40.076Z,891.00
2023-04-26T05:05:39.927Z,893.00
2023-04-26T05:06:39.892Z,890.00
2023-04-26T05:07:39.871Z,890.00
2023-04-26T05:08:39.866Z,892.00
2023-04-26T05:09:38.842Z,895.00
2023-04-26T05:10:39.826Z,895.00
2023-04-26T05:11:38.860Z,900.00
2023-04-26T05:12:39.820Z,900.00
2023-04-26T05:13:38.828Z,900.00
2023-04-26T05:14:39.810Z,898.00
2023-04-26T05:15:38.797Z,896.00
2023-04-26T05:16:39.837Z,895.00
2023-04-26T05:17:39.837Z,893.00
2023-04-26T05:18:38.781Z,890.00
2023-04-26T05:19:38.807Z,889.00
2023-04-26T05:20:38.807Z,889.00
2023-04-26T05:21:39.790Z,891.00
2023-04-26T05:22:39.841Z,890.00
2023-04-26T05:23:39.889Z,890.00
2023-04-26T05:24:39.928Z,892.00
2023-04-26T05:25:38.946Z,897.00
2023-04-26T05:26:39.993Z,894.00
2023-04-26T05:27:39.037Z,890.00
2023-04-26T05:28:39.083Z,885.00
2023-04-26T05:29:39.122Z,890.00
2023-04-26T05:30:39.153Z,892.00
2023-04-26T05:31:40.259Z,892.00
2023-04-26T05:32:40.354Z,893.00
2023-04-26T05:33:39.302Z,891.00
2023-04-26T05:34:39.527Z,903.00
2023-04-26T05:35:40.754Z,911.00
2023-04-26T05:36:40.408Z,917.00
2023-04-26T05:37:40.446Z,917.00
2023-04-26T05:38:39.481Z,919.00
2023-04-26T05:39:40.502Z,918.00
2023-04-26T05:40:39.571Z,918.00
2023-04-26T05:41:40.613Z,919.00
2023-04-26T05:42:39.638Z,922.00
2023-04-26T05:43:41.192Z,923.00
2023-04-26T05:44:40.892Z,916.00
2023-04-26T05:45:41.209Z,913.00
2023-04-26T05:46:41.303Z,920.00
2023-04-26T05:47:41.885Z,923.00
2023-04-26T05:48:40.077Z,930.00
2023-04-26T05:49:40.387Z,954.00
2023-04-26T05:50:41.346Z,964.00
2023-04-26T05:51:40.232Z,971.00
2023-04-26T05:52:41.708Z,984.00
2023-04-26T05:53:41.246Z,995.00
2023-04-26T05:54:41.476Z,1027.00
2023-04-26T05:55:41.741Z,1033.00
2023-04-26T05:56:41.663Z,1040.00
2023-04-26T05:57:41.985Z,1066.00
2023-04-26T05:58:41.506Z,1119.00
2023-04-26T05:59:41.628Z,1139.00
2023-04-26T06:00:41.325Z,1161.00
2023-04-26T06:01:41.605Z,1192.00
2023-04-26T06:02:41.546Z,1236.00
2023-04-26T06:03:41.491Z,1261.00
2023-04-26T06:04:40.461Z,1294.00
2023-04-26T06:05:40.302Z,1313.00
2023-04-26T06:06:41.392Z,1317.00
2023-04-26T06:07:41.671Z,1345.00
2023-04-26T06:08:41.294Z,1369.00
2023-04-26T06:09:41.388Z,1420.00
2023-04-26T06:10:41.456Z,1435.00
2023-04-26T06:11:41.460Z,1456.00
2023-04-26T06:12:41.530Z,1491.00
2023-04-26T06:13:41.611Z,1523.00
2023-04-26T06:14:41.641Z,1572.00
2023-04-26T06:15:41.694Z,1580.00
2023-04-26T06:16:43.736Z,1587.00
2023-04-26T06:17:40.771Z,1600.00
2023-04-26T06:18:41.713Z,1618.00
2023-04-26T06:19:41.700Z,1637.00
2023-04-26T06:20:41.708Z,1666.00
2023-04-26T06:21:41.694Z,1712.00
2023-04-26T06:22:41.708Z,1735.00
2023-04-26T06:23:41.747Z,1761.00
2023-04-26T06:24:41.673Z,1776.00
2023-04-26T06:25:41.681Z,1788.00
2023-04-26T06:26:41.654Z,1812.00
2023-04-26T06:27:40.668Z,1834.00
2023-04-26T06:28:42.428Z,1848.00
2023-04-26T06:29:41.644Z,1869.00
2023-04-26T06:30:41.653Z,1897.00
2023-04-26T06:31:41.710Z,1930.00
2023-04-26T06:32:41.695Z,1954.00
2023-04-26T06:33:41.617Z,1974.00
2023-04-26T06:34:40.611Z,1992.00
2023-04-26T06:35:40.614Z,2010.00
2023-04-26T06:36:40.585Z,2033.00
2023-04-26T06:37:41.594Z,2048.00
2023-04-26T06:38:41.575Z,2062.00
2023-04-26T06:39:41.696Z,2080.00
2023-04-26T06:40:41.566Z,2110.00
2023-04-26T06:41:41.540Z,2122.00
2023-04-26T06:42:41.572Z,2137.00
2023-04-26T06:43:41.549Z,2166.00
2023-04-26T06:44:41.818Z,2186.00
2023-04-26T06:45:43.259Z,2209.00
2023-04-26T06:46:41.546Z,2227.00
2023-04-26T06:47:41.529Z,2244.00
2023-04-26T06:48:40.502Z,2266.00
2023-04-26T06:49:41.554Z,2298.00
2023-04-26T06:50:40.531Z,2322.00
2023-04-26T06:51:41.491Z,2344.00
2023-04-26T06:52:40.481Z,2364.00
2023-04-26T06:53:41.939Z,2377.00
2023-04-26T06:54:53.590Z,2406.00
2023-04-26T06:55:41.498Z,2436.00
2023-04-26T06:56:40.461Z,2522.00
2023-04-26T06:57:41.458Z,2500.00
2023-04-26T06:58:42.445Z,2486.00
2023-04-26T06:59:41.441Z,2506.00
2023-04-26T07:00:40.433Z,2525.00
2023-04-26T07:01:41.447Z,2531.00
2023-04-26T07:02:41.622Z,2528.00
2023-04-26T07:03:41.553Z,2497.00
2023-04-26T07:04:41.556Z,2426.00
2023-04-26T07:05:41.667Z,2376.00
2023-04-26T07:06:41.464Z,2180.00
2023-04-26T07:07:41.945Z,2256.00
2023-04-26T07:08:41.371Z,2208.00
2023-04-26T07:09:41.365Z,2183.00
2023-04-26T07:10:40.359Z,2309.00
2023-04-26T07:11:40.350Z,2413.00
2023-04-26T07:12:41.349Z,2439.00
2023-04-26T07:13:41.340Z,2443.00
2023-04-26T07:14:41.345Z,2444.00
2023-04-26T07:15:41.439Z,2431.00
2023-04-26T07:16:41.443Z,2433.00
2023-04-26T07:17:40.317Z,2406.00
2023-04-26T07:18:40.553Z,2356.00
2023-04-26T07:19:41.657Z,2363.00
2023-04-26T07:20:42.601Z,2379.00
2023-04-26T07:21:41.357Z,2378.00
2023-04-26T07:22:41.346Z,2367.00
2023-04-26T07:23:41.342Z,2385.00
2023-04-26T07:24:41.415Z,2397.00
2023-04-26T07:25:40.428Z,2402.00
2023-04-26T07:26:41.473Z,2410.00
2023-04-26T07:27:40.578Z,2413.00
2023-04-26T07:28:41.652Z,2420.00
2023-04-26T07:29:41.650Z,2430.00
2023-04-26T07:30:40.727Z,2432.00
2023-04-26T07:31:41.762Z,2432.00
2023-04-26T07:32:41.901Z,2429.00
2023-04-26T07:33:41.935Z,2418.00
2023-04-26T07:34:41.066Z,2410.00
2023-04-26T07:35:42.026Z,2377.00
2023-04-26T07:36:42.090Z,2390.00
2023-04-26T07:37:42.118Z,2393.00
2023-04-26T07:38:42.172Z,2392.00
2023-04-26T07:39:42.232Z,2376.00
2023-04-26T07:40:41.274Z,2349.00
2023-04-26T07:41:43.729Z,2333.00
2023-04-26T07:42:42.592Z,2327.00
2023-04-26T07:43:42.606Z,2328.00
2023-04-26T07:44:42.654Z,2319.00
2023-04-26T07:45:42.740Z,2528.00
2023-04-26T07:46:41.759Z,2636.00
2023-04-26T07:47:41.817Z,2593.00
2023-04-26T07:48:41.971Z,2564.00
2023-04-26T07:49:41.862Z,2232.00
2023-04-26T07:50:42.910Z,2226.00
2023-04-26T07:51:42.980Z,2308.00
2023-04-26T07:52:43.032Z,2293.00
2023-04-26T07:53:43.480Z,2347.00
2023-04-26T07:54:42.164Z,2395.00
2023-04-26T07:55:43.262Z,2203.00
2023-04-26T07:56:42.243Z,2301.00
2023-04-26T07:57:43.300Z,2272.00
2023-04-26T07:58:42.432Z,2262.00
2023-04-26T07:59:43.318Z,2272.00
2023-04-26T08:00:42.328Z,2276.00
2023-04-26T08:01:43.368Z,2281.00
2023-04-26T08:02:45.279Z,2263.00
2023-04-26T08:03:43.557Z,2264.00
2023-04-26T08:04:43.528Z,2260.00
2023-04-26T08:05:42.434Z,2190.00
2023-04-26T08:06:43.280Z,2298.00
2023-04-26T08:07:42.269Z,2258.00
2023-04-26T08:08:43.290Z,2258.00
2023-04-26T08:09:43.268Z,2227.00
2023-04-26T08:10:42.262Z,2236.00
2023-04-26T08:11:43.299Z,2250.00
2023-04-26T08:12:42.238Z,2242.00
2023-04-26T08:13:43.269Z,2283.00
2023-04-26T08:14:43.309Z,2278.00
2023-04-26T08:15:42.252Z,2270.00
2023-04-26T08:16:43.274Z,2269.00
2023-04-26T08:17:42.269Z,2292.00
2023-04-26T08:18:45.345Z,2363.00
2023-04-26T08:19:43.209Z,2363.00
2023-04-26T08:20:43.245Z,2323.00
2023-04-26T08:21:43.170Z,2310.00
2023-04-26T08:22:42.164Z,2308.00
2023-04-26T08:23:43.213Z,2401.00
2023-04-26T08:24:43.162Z,2342.00
2023-04-26T08:25:43.158Z,2253.00
2023-04-26T08:26:43.179Z,2258.00
2023-04-26T08:27:42.140Z,2254.00
2023-04-26T08:28:42.147Z,2256.00
2023-04-26T08:29:42.130Z,2255.00
2023-04-26T08:30:42.294Z,2259.00
2023-04-26T08:31:42.233Z,2265.00
2023-04-26T08:32:43.142Z,2273.00
2023-04-26T08:33:43.113Z,2272.00
2023-04-26T08:34:43.162Z,2284.00
2023-04-26T08:35:42.105Z,2283.00
2023-04-26T08:36:43.138Z,2289.00
2023-04-26T08:37:42.079Z,2293.00
2023-04-26T08:38:43.105Z,2286.00
2023-04-26T08:39:43.045Z,2280.00
2023-04-26T08:40:42.048Z,2125.00
2023-04-26T08:41:44.002Z,2089.00
2023-04-26T08:42:42.047Z,2172.00
2023-04-26T08:43:42.970Z,2067.00
2023-04-26T08:44:42.037Z,1999.00
2023-04-26T08:45:42.082Z,2000.00
2023-04-26T08:46:43.130Z,2010.00
2023-04-26T08:47:43.101Z,2027.00
2023-04-26T08:48:42.996Z,2102.00
2023-04-26T08:49:43.004Z,2005.00
2023-04-26T08:50:43.014Z,1810.00
2023-04-26T08:51:43.053Z,1877.00
2023-04-26T08:52:43.176Z,1974.00
2023-04-26T08:53:42.163Z,1962.00
2023-04-26T08:54:43.223Z,1907.00
2023-04-26T08:55:43.290Z,1915.00
2023-04-26T08:56:43.329Z,2052.00
2023-04-26T08:57:43.409Z,2073.00
2023-04-26T08:58:43.517Z,2001.00
2023-04-26T08:59:43.511Z,1880.00
2023-04-26T09:00:43.613Z,2066.00
2023-04-26T09:01:43.663Z,2111.00
2023-04-26T09:02:42.993Z,2090.00
2023-04-26T09:03:42.987Z,2092.00
2023-04-26T09:04:43.915Z,1980.00
2023-04-26T09:05:43.847Z,1996.00
2023-04-26T09:06:43.934Z,1988.00
2023-04-26T09:07:43.949Z,1988.00
2023-04-26T09:08:43.514Z,1944.00
2023-04-26T09:09:44.070Z,1965.00
2023-04-26T09:10:44.120Z,1986.00
2023-04-26T09:11:43.164Z,1983.00
2023-04-26T09:12:44.218Z,2039.00
2023-04-26T09:13:44.315Z,2048.00
2023-04-26T09:14:43.369Z,2071.00
2023-04-26T09:15:43.429Z,2075.00
2023-04-26T09:16:44.647Z,2045.00
2023-04-26T09:17:44.670Z,2060.00
2023-04-26T09:18:43.609Z,2030.00
2023-04-26T09:19:44.641Z,2022.00
2023-04-26T09:20:44.684Z,2045.00
2023-04-26T09:21:44.761Z,2015.00
2023-04-26T09:22:44.801Z,2023.00
2023-04-26T09:23:44.924Z,1926.00
2023-04-26T09:24:43.929Z,2036.00
2023-04-26T09:25:44.980Z,2013.00
2023-04-26T09:26:44.032Z,2051.00
2023-04-26T09:27:45.106Z,1575.00
2023-04-26T09:28:44.166Z,1520.00
2023-04-26T09:29:44.150Z,1389.00
2023-04-26T09:30:44.174Z,1180.00
2023-04-26T09:31:47.802Z,1290.00
2023-04-26T09:32:45.237Z,1149.00
2023-04-26T09:33:44.156Z,1242.00
2023-04-26T09:34:45.192Z,1059.00
2023-04-26T09:35:44.196Z,1257.00
2023-04-26T09:36:45.166Z,1326.00
2023-04-26T09:37:57.605Z,1123.00
2023-04-26T09:38:45.149Z,1258.00
2023-04-26T09:39:45.114Z,997.00
2023-04-26T09:40:45.122Z,1205.00
2023-04-26T09:41:44.110Z,1212.00
2023-04-26T09:42:45.133Z,944.00
2023-04-26T09:43:45.128Z,1092.00
2023-04-26T09:44:45.090Z,1086.00
2023-04-26T09:45:45.068Z,923.00
2023-04-26T09:46:45.133Z,1032.00
2023-04-26T09:47:44.115Z,927.00
2023-04-26T09:48:46.636Z,784.00
2023-04-26T09:49:44.075Z,870.00
2023-04-26T09:50:45.117Z,763.00
2023-04-26T09:51:44.034Z,871.00
2023-04-26T09:52:45.049Z,883.00
2023-04-26T09:53:44.087Z,886.00
2023-04-26T09:54:45.018Z,904.00
2023-04-26T09:55:45.047Z,913.00
2023-04-26T09:56:45.062Z,921.00
2023-04-26T09:57:45.027Z,925.00
2023-04-26T09:58:45.048Z,930.00
2023-04-26T09:59:44.985Z,939.00
2023-04-26T10:00:44.029Z,945.00
2023-04-26T10:01:44.975Z,947.00
2023-04-26T10:02:45.049Z,948.00
2023-04-26T10:03:44.048Z,943.00
2023-04-26T10:04:44.988Z,942.00
2023-04-26T10:05:43.991Z,933.00
2023-04-26T10:06:44.999Z,904.00
2023-04-26T10:07:44.961Z,927.00
2023-04-26T10:08:43.920Z,932.00
2023-04-26T10:09:44.904Z,937.00
2023-04-26T10:10:44.907Z,944.00
2023-04-26T10:11:44.907Z,946.00
2023-04-26T10:12:43.891Z,947.00
2023-04-26T10:13:44.905Z,953.00
2023-04-26T10:14:44.883Z,963.00
2023-04-26T10:15:44.874Z,946.00
2023-04-26T10:16:43.902Z,938.00
2023-04-26T10:17:44.927Z,936.00
2023-04-26T10:18:43.857Z,939.00
2023-04-26T10:19:43.857Z,943.00
2023-04-26T10:20:43.857Z,946.00
2023-04-26T10:21:44.832Z,954.00
2023-04-26T10:22:43.843Z,958.00
2023-04-26T10:23:44.812Z,964.00
2023-04-26T10:24:44.806Z,967.00
2023-04-26T10:25:43.803Z,982.00
2023-04-26T10:26:44.817Z,989.00
2023-04-26T10:27:44.796Z,999.00
2023-04-26T10:28:44.845Z,996.00
2023-04-26T10:29:44.774Z,991.00
2023-04-26T10:30:43.783Z,985.00
2023-04-26T10:31:44.788Z,977.00
2023-04-26T10:32:44.787Z,974.00
2023-04-26T10:33:44.767Z,960.00
2023-04-26T10:34:43.750Z,951.00
2023-04-26T10:35:44.740Z,946.00
2023-04-26T10:36:44.732Z,939.00
2023-04-26T10:37:44.726Z,937.00
2023-04-26T10:38:44.746Z,944.00
2023-04-26T10:39:44.711Z,944.00
2023-04-26T10:40:43.730Z,951.00
2023-04-26T10:41:44.743Z,946.00
2023-04-26T10:42:44.695Z,991.00
2023-04-26T10:43:43.724Z,992.00
2023-04-26T10:44:44.682Z,976.00
2023-04-26T10:45:43.744Z,1004.00
2023-04-26T10:46:43.731Z,995.00
2023-04-26T10:47:43.761Z,990.00
2023-04-26T10:48:44.736Z,991.00
2023-04-26T10:49:43.743Z,983.00
2023-04-26T10:50:44.741Z,973.00
2023-04-26T10:51:43.761Z,964.00
2023-04-26T10:52:43.800Z,972.00
2023-04-26T10:53:44.783Z,976.00
2023-04-26T10:54:43.807Z,960.00
2023-04-26T10:55:44.806Z,955.00
2023-04-26T10:56:44.821Z,876.00
2023-04-26T10:57:44.825Z,892.00
2023-04-26T10:58:44.844Z,901.00
2023-04-26T10:59:54.215Z,901.00
2023-04-26T11:00:44.853Z,862.00
2023-04-26T11:01:44.874Z,870.00
2023-04-26T11:02:44.913Z,865.00
2023-04-26T11:03:45.064Z,868.00
2023-04-26T11:04:44.929Z,878.00
2023-04-26T11:05:44.837Z,883.00
2023-04-26T11:06:44.812Z,883.00
2023-04-26T11:07:43.864Z,888.00
2023-04-26T11:08:44.800Z,881.00
2023-04-26T11:09:43.822Z,878.00
2023-04-26T11:10:44.886Z,880.00
2023-04-26T11:11:44.786Z,840.00
2023-04-26T11:12:43.806Z,831.00
2023-04-26T11:13:43.776Z,825.00
2023-04-26T11:14:44.759Z,823.00
2023-04-26T11:15:43.802Z,832.00
2023-04-26T11:16:43.773Z,833.00
2023-04-26T11:17:44.792Z,828.00
2023-04-26T11:18:44.764Z,830.00
2023-04-26T11:19:43.739Z,832.00
2023-04-26T11:20:44.735Z,835.00
2023-04-26T11:21:43.730Z,832.00
2023-04-26T11:22:44.694Z,818.00
2023-04-26T11:23:44.705Z,841.00
2023-04-26T11:24:43.708Z,829.00
2023-04-26T11:25:44.707Z,821.00
2023-04-26T11:26:44.710Z,938.00
2023-04-26T11:27:44.658Z,876.00
2023-04-26T11:28:44.666Z,889.00
2023-04-26T11:29:44.649Z,1036.00
2023-04-26T11:30:43.639Z,937.00
2023-04-26T11:31:44.775Z,914.00
2023-04-26T11:32:43.656Z,904.00
2023-04-26T11:33:43.623Z,906.00
2023-04-26T11:34:43.643Z,902.00
2023-04-26T11:35:44.604Z,901.00
2023-04-26T11:36:43.607Z,903.00
2023-04-26T11:37:43.598Z,904.00
2023-04-26T11:38:43.596Z,913.00
2023-04-26T11:39:43.576Z,927.00
2023-04-26T11:40:43.585Z,944.00
2023-04-26T11:41:44.582Z,948.00
2023-04-26T11:42:44.592Z,951.00
2023-04-26T11:43:44.682Z,960.00
2023-04-26T11:44:45.732Z,968.00
2023-04-26T11:45:44.547Z,976.00
2023-04-26T11:46:43.568Z,978.00
2023-04-26T11:47:43.582Z,977.00
2023-04-26T11:48:43.527Z,986.00
2023-04-26T11:49:44.530Z,1100.00
2023-04-26T11:50:44.554Z,1167.00
2023-04-26T11:51:44.575Z,1200.00
2023-04-26T11:52:44.659Z,1174.00
2023-04-26T11:53:43.650Z,1234.00
2023-04-26T11:54:45.048Z,1119.00
2023-04-26T11:55:44.717Z,1075.00
2023-04-26T11:56:43.790Z,1062.00
2023-04-26T11:57:44.816Z,1113.00
2023-04-26T11:58:44.012Z,1174.00
2023-04-26T11:59:44.950Z,1194.00
2023-04-26T12:00:44.972Z,1182.00
2023-04-26T12:01:44.072Z,1080.00
2023-04-26T12:02:44.214Z,1083.00
2023-04-26T12:03:45.393Z,1084.00
2023-04-26T12:04:45.534Z,1087.00
2023-04-26T12:05:45.289Z,1095.00
2023-04-26T12:06:45.358Z,1098.00
2023-04-26T12:07:45.400Z,1099.00
2023-04-26T12:08:44.479Z,1097.00
2023-04-26T12:09:45.541Z,1092.00
2023-04-26T12:10:44.610Z,1087.00
2023-04-26T12:11:45.654Z,1085.00
2023-04-26T12:12:45.742Z,1087.00
2023-04-26T12:13:45.778Z,1090.00
2023-04-26T12:14:44.889Z,1089.00
2023-04-26T12:15:45.940Z,1098.00
2023-04-26T12:16:44.987Z,1099.00
2023-04-26T12:17:46.059Z,1102.00
2023-04-26T12:18:45.095Z,1104.00
2023-04-26T12:19:45.183Z,1107.00
2023-04-26T12:20:46.217Z,1105.00
2023-04-26T12:21:46.303Z,1104.00